sensor_id;sensor_type;location;lat;lon;timestamp;temperature;humidity
59301;DHT22;45073;52.740;6.784;2022-08-21T00:00:28;18.10;99.90
59301;DHT22;45073;52.740;6.784;2022-08-21T00:02:57;18.00;99.90
59301;DHT22;45073;52.740;6.784;2022-08-21T00:05:23;18.00;99.90
59301;DHT22;45073;52.740;6.784;2022-08-21T00:07:50;17.90;99.90
59301;DHT22;45073;52.740;6.784;2022-08-21T00:10:16;17.90;99.90
59301;DHT22;45073;52.740;6.784;2022-08-21T00:12:42;17.80;99.90
59301;DHT22;45073;52.740;6.784;2022-08-21T00:15:10;17.80;99.90
59301;DHT22;45073;52.740;6.784;2022-08-21T00:17:36;17.80;99.90
59301;DHT22;45073;52.740;6.784;2022-08-21T00:20:06;17.70;99.90
59301;DHT22;45073;52.740;6.784;2022-08-21T00:22:32;17.70;99.90
59301;DHT22;45073;52.740;6.784;2022-08-21T00:24:58;17.70;99.90
59301;DHT22;45073;52.740;6.784;2022-08-21T00:27:24;17.70;99.90
59301;DHT22;45073;52.740;6.784;2022-08-21T00:29:49;17.60;99.90
59301;DHT22;45073;52.740;6.784;2022-08-21T00:32:20;17.60;99.90
59301;DHT22;45073;52.740;6.784;2022-08-21T00:34:47;17.60;99.90
59301;DHT22;45073;52.740;6.784;2022-08-21T00:37:12;17.60;99.90
59301;DHT22;45073;52.740;6.784;2022-08-21T00:39:38;17.60;99.90
59301;DHT22;45073;52.740;6.784;2022-08-21T00:42:04;17.60;99.90
59301;DHT22;45073;52.740;6.784;2022-08-21T00:44:29;17.50;99.90
59301;DHT22;45073;52.740;6.784;2022-08-21T00:46:56;17.50;99.90
59301;DHT22;45073;52.740;6.784;2022-08-21T00:49:22;17.50;99.90
59301;DHT22;45073;52.740;6.784;2022-08-21T00:51:54;17.50;99.90
59301;DHT22;45073;52.740;6.784;2022-08-21T00:54:22;17.50;99.90
59301;DHT22;45073;52.740;6.784;2022-08-21T00:57:03;17.40;99.90
59301;DHT22;45073;52.740;6.784;2022-08-21T00:59:33;17.40;99.90
59301;DHT22;45073;52.740;6.784;2022-08-21T01:02:01;17.40;99.90
59301;DHT22;45073;52.740;6.784;2022-08-21T01:04:27;17.30;99.90
59301;DHT22;45073;52.740;6.784;2022-08-21T01:06:53;17.30;99.90
59301;DHT22;45073;52.740;6.784;2022-08-21T01:09:20;17.30;99.90
59301;DHT22;45073;52.740;6.784;2022-08-21T01:11:46;17.20;99.90
59301;DHT22;45073;52.740;6.784;2022-08-21T01:14:13;17.10;99.90
59301;DHT22;45073;52.740;6.784;2022-08-21T01:16:45;17.10;99.90
59301;DHT22;45073;52.740;6.784;2022-08-21T01:19:12;17.10;99.90
59301;DHT22;45073;52.740;6.784;2022-08-21T01:21:38;17.00;99.90
59301;DHT22;45073;52.740;6.784;2022-08-21T01:24:04;17.00;99.90
59301;DHT22;45073;52.740;6.784;2022-08-21T01:26:32;17.00;99.90
59301;DHT22;45073;52.740;6.784;2022-08-21T01:29:11;17.00;99.90
59301;DHT22;45073;52.740;6.784;2022-08-21T01:31:37;17.00;99.90
59301;DHT22;45073;52.740;6.784;2022-08-21T01:34:03;17.00;99.90
59301;DHT22;45073;52.740;6.784;2022-08-21T01:36:29;17.00;99.90
59301;DHT22;45073;52.740;6.784;2022-08-21T01:38:55;17.00;99.90
59301;DHT22;45073;52.740;6.784;2022-08-21T01:41:21;17.00;99.90
59301;DHT22;45073;52.740;6.784;2022-08-21T01:43:47;16.90;99.90
59301;DHT22;45073;52.740;6.784;2022-08-21T01:46:14;16.80;99.90
59301;DHT22;45073;52.740;6.784;2022-08-21T01:48:40;16.80;99.90
59301;DHT22;45073;52.740;6.784;2022-08-21T01:51:07;16.70;99.90
59301;DHT22;45073;52.740;6.784;2022-08-21T01:53:34;16.70;99.90
59301;DHT22;45073;52.740;6.784;2022-08-21T01:56:05;16.60;99.90
59301;DHT22;45073;52.740;6.784;2022-08-21T01:58:31;16.60;99.90
59301;DHT22;45073;52.740;6.784;2022-08-21T02:00:59;16.60;99.90
59301;DHT22;45073;52.740;6.784;2022-08-21T02:03:26;16.60;99.90
59301;DHT22;45073;52.740;6.784;2022-08-21T02:05:51;16.60;99.90
59301;DHT22;45073;52.740;6.784;2022-08-21T02:08:17;16.60;99.90
59301;DHT22;45073;52.740;6.784;2022-08-21T02:10:43;16.50;99.90
59301;DHT22;45073;52.740;6.784;2022-08-21T02:13:09;16.50;99.90
59301;DHT22;45073;52.740;6.784;2022-08-21T02:15:34;16.50;99.90
59301;DHT22;45073;52.740;6.784;2022-08-21T02:18:01;16.50;99.90
59301;DHT22;45073;52.740;6.784;2022-08-21T02:20:31;16.50;99.90
59301;DHT22;45073;52.740;6.784;2022-08-21T02:22:57;16.50;99.90
59301;DHT22;45073;52.740;6.784;2022-08-21T02:25:24;16.40;99.90
59301;DHT22;45073;52.740;6.784;2022-08-21T02:27:50;16.40;99.90
59301;DHT22;45073;52.740;6.784;2022-08-21T02:30:23;16.40;99.90
59301;DHT22;45073;52.740;6.784;2022-08-21T02:32:49;16.40;99.90
59301;DHT22;45073;52.740;6.784;2022-08-21T02:35:15;16.30;99.90
59301;DHT22;45073;52.740;6.784;2022-08-21T02:37:56;16.20;99.90
59301;DHT22;45073;52.740;6.784;2022-08-21T02:40:25;16.20;99.90
59301;DHT22;45073;52.740;6.784;2022-08-21T02:42:52;16.20;99.90
59301;DHT22;45073;52.740;6.784;2022-08-21T02:45:18;16.20;99.90
59301;DHT22;45073;52.740;6.784;2022-08-21T02:47:55;16.20;99.90
59301;DHT22;45073;52.740;6.784;2022-08-21T02:50:28;16.20;99.90
59301;DHT22;45073;52.740;6.784;2022-08-21T02:52:54;16.20;99.90
59301;DHT22;45073;52.740;6.784;2022-08-21T02:55:20;16.20;99.90
59301;DHT22;45073;52.740;6.784;2022-08-21T02:57:47;16.10;99.90
59301;DHT22;45073;52.740;6.784;2022-08-21T03:00:14;16.10;99.90
59301;DHT22;45073;52.740;6.784;2022-08-21T03:02:40;16.10;99.90
59301;DHT22;45073;52.740;6.784;2022-08-21T03:05:07;16.00;99.90
59301;DHT22;45073;52.740;6.784;2022-08-21T03:07:33;16.00;99.90
59301;DHT22;45073;52.740;6.784;2022-08-21T03:10:00;16.00;99.90
59301;DHT22;45073;52.740;6.784;2022-08-21T03:12:25;16.00;99.90
59301;DHT22;45073;52.740;6.784;2022-08-21T03:14:51;16.00;99.90
59301;DHT22;45073;52.740;6.784;2022-08-21T03:17:16;16.00;99.90
59301;DHT22;45073;52.740;6.784;2022-08-21T03:19:42;16.00;99.90
59301;DHT22;45073;52.740;6.784;2022-08-21T03:22:07;16.00;99.90
59301;DHT22;45073;52.740;6.784;2022-08-21T03:24:33;16.00;99.90
59301;DHT22;45073;52.740;6.784;2022-08-21T03:26:59;15.90;99.90
59301;DHT22;45073;52.740;6.784;2022-08-21T03:29:25;15.90;99.90
59301;DHT22;45073;52.740;6.784;2022-08-21T03:31:51;15.90;99.90
59301;DHT22;45073;52.740;6.784;2022-08-21T03:34:19;15.90;99.90
59301;DHT22;45073;52.740;6.784;2022-08-21T03:36:45;15.90;99.90
59301;DHT22;45073;52.740;6.784;2022-08-21T03:39:11;15.80;99.90
59301;DHT22;45073;52.740;6.784;2022-08-21T03:41:36;15.80;99.90
59301;DHT22;45073;52.740;6.784;2022-08-21T03:44:02;15.80;99.90
59301;DHT22;45073;52.740;6.784;2022-08-21T03:46:28;15.80;99.90
59301;DHT22;45073;52.740;6.784;2022-08-21T03:48:54;15.80;99.90
59301;DHT22;45073;52.740;6.784;2022-08-21T03:51:21;15.70;99.90
59301;DHT22;45073;52.740;6.784;2022-08-21T03:53:46;15.80;99.90
59301;DHT22;45073;52.740;6.784;2022-08-21T03:56:12;15.80;99.90
59301;DHT22;45073;52.740;6.784;2022-08-21T03:58:37;15.70;99.90
59301;DHT22;45073;52.740;6.784;2022-08-21T04:01:04;15.70;99.90
59301;DHT22;45073;52.740;6.784;2022-08-21T04:03:33;15.80;99.90
59301;DHT22;45073;52.740;6.784;2022-08-21T04:05:59;15.80;99.90
59301;DHT22;45073;52.740;6.784;2022-08-21T04:08:25;15.70;99.90
59301;DHT22;45073;52.740;6.784;2022-08-21T04:10:53;15.70;99.90
59301;DHT22;45073;52.740;6.784;2022-08-21T04:13:20;15.80;99.90
59301;DHT22;45073;52.740;6.784;2022-08-21T04:15:46;15.70;99.90
59301;DHT22;45073;52.740;6.784;2022-08-21T04:18:11;15.60;99.90
59301;DHT22;45073;52.740;6.784;2022-08-21T04:20:37;15.60;99.90
59301;DHT22;45073;52.740;6.784;2022-08-21T04:23:03;15.70;99.90
59301;DHT22;45073;52.740;6.784;2022-08-21T04:25:29;15.70;99.90
59301;DHT22;45073;52.740;6.784;2022-08-21T04:27:54;15.60;99.90
59301;DHT22;45073;52.740;6.784;2022-08-21T04:30:20;15.60;99.90
59301;DHT22;45073;52.740;6.784;2022-08-21T04:32:48;15.60;99.90
59301;DHT22;45073;52.740;6.784;2022-08-21T04:35:15;15.50;99.90
59301;DHT22;45073;52.740;6.784;2022-08-21T04:37:41;15.60;99.90
59301;DHT22;45073;52.740;6.784;2022-08-21T04:40:09;15.50;99.90
59301;DHT22;45073;52.740;6.784;2022-08-21T04:42:45;15.50;99.90
59301;DHT22;45073;52.740;6.784;2022-08-21T04:45:25;15.50;99.90
59301;DHT22;45073;52.740;6.784;2022-08-21T04:47:53;15.50;99.90
59301;DHT22;45073;52.740;6.784;2022-08-21T04:50:27;15.50;99.90
59301;DHT22;45073;52.740;6.784;2022-08-21T04:52:54;15.50;99.90
59301;DHT22;45073;52.740;6.784;2022-08-21T04:55:20;15.50;99.90
59301;DHT22;45073;52.740;6.784;2022-08-21T04:57:47;15.50;99.90
59301;DHT22;45073;52.740;6.784;2022-08-21T05:00:16;15.50;99.90
59301;DHT22;45073;52.740;6.784;2022-08-21T05:02:43;15.50;99.90
59301;DHT22;45073;52.740;6.784;2022-08-21T05:05:09;15.50;99.90
59301;DHT22;45073;52.740;6.784;2022-08-21T05:07:35;15.50;99.90
59301;DHT22;45073;52.740;6.784;2022-08-21T05:10:02;15.50;99.90
59301;DHT22;45073;52.740;6.784;2022-08-21T05:12:28;15.50;99.90
59301;DHT22;45073;52.740;6.784;2022-08-21T05:14:53;15.50;99.90
59301;DHT22;45073;52.740;6.784;2022-08-21T05:17:19;15.50;99.90
59301;DHT22;45073;52.740;6.784;2022-08-21T05:19:45;15.60;99.90
59301;DHT22;45073;52.740;6.784;2022-08-21T05:22:10;15.50;99.90
59301;DHT22;45073;52.740;6.784;2022-08-21T05:24:36;15.50;99.90
59301;DHT22;45073;52.740;6.784;2022-08-21T05:27:01;15.50;99.90
59301;DHT22;45073;52.740;6.784;2022-08-21T05:29:27;15.60;99.90
59301;DHT22;45073;52.740;6.784;2022-08-21T05:31:56;15.60;99.90
59301;DHT22;45073;52.740;6.784;2022-08-21T05:34:22;15.60;99.90
59301;DHT22;45073;52.740;6.784;2022-08-21T05:36:48;15.60;99.90
59301;DHT22;45073;52.740;6.784;2022-08-21T05:39:14;15.60;99.90
59301;DHT22;45073;52.740;6.784;2022-08-21T05:41:40;15.60;99.90
59301;DHT22;45073;52.740;6.784;2022-08-21T05:44:06;15.70;99.90
59301;DHT22;45073;52.740;6.784;2022-08-21T05:46:31;15.70;99.90
59301;DHT22;45073;52.740;6.784;2022-08-21T05:48:57;15.70;99.90
59301;DHT22;45073;52.740;6.784;2022-08-21T05:51:23;15.70;99.90
59301;DHT22;45073;52.740;6.784;2022-08-21T05:53:48;15.80;99.90
59301;DHT22;45073;52.740;6.784;2022-08-21T05:56:14;15.80;99.90
59301;DHT22;45073;52.740;6.784;2022-08-21T05:58:41;15.90;99.90
59301;DHT22;45073;52.740;6.784;2022-08-21T06:01:06;16.00;99.90
59301;DHT22;45073;52.740;6.784;2022-08-21T06:03:36;16.00;99.90
59301;DHT22;45073;52.740;6.784;2022-08-21T06:06:02;16.10;99.90
59301;DHT22;45073;52.740;6.784;2022-08-21T06:08:28;16.10;99.90
59301;DHT22;45073;52.740;6.784;2022-08-21T06:10:55;16.20;99.90
59301;DHT22;45073;52.740;6.784;2022-08-21T06:13:22;16.20;99.90
59301;DHT22;45073;52.740;6.784;2022-08-21T06:15:48;16.20;99.90
59301;DHT22;45073;52.740;6.784;2022-08-21T06:18:14;16.30;99.90
59301;DHT22;45073;52.740;6.784;2022-08-21T06:20:40;16.40;99.90
59301;DHT22;45073;52.740;6.784;2022-08-21T06:23:06;16.40;99.90
59301;DHT22;45073;52.740;6.784;2022-08-21T06:25:32;16.50;99.90
59301;DHT22;45073;52.740;6.784;2022-08-21T06:28:06;16.50;99.90
59301;DHT22;45073;52.740;6.784;2022-08-21T06:30:32;16.60;99.90
59301;DHT22;45073;52.740;6.784;2022-08-21T06:32:58;16.60;99.90
59301;DHT22;45073;52.740;6.784;2022-08-21T06:35:24;16.60;99.90
59301;DHT22;45073;52.740;6.784;2022-08-21T06:37:54;16.70;99.90
59301;DHT22;45073;52.740;6.784;2022-08-21T06:40:20;16.70;99.90
59301;DHT22;45073;52.740;6.784;2022-08-21T06:42:45;16.80;99.90
59301;DHT22;45073;52.740;6.784;2022-08-21T06:45:11;16.80;99.90
59301;DHT22;45073;52.740;6.784;2022-08-21T06:47:36;16.90;99.90
59301;DHT22;45073;52.740;6.784;2022-08-21T06:50:03;16.90;99.90
59301;DHT22;45073;52.740;6.784;2022-08-21T06:52:29;17.00;99.90
59301;DHT22;45073;52.740;6.784;2022-08-21T06:54:54;17.10;99.90
59301;DHT22;45073;52.740;6.784;2022-08-21T06:57:20;17.20;99.90
59301;DHT22;45073;52.740;6.784;2022-08-21T06:59:45;17.20;99.90
59301;DHT22;45073;52.740;6.784;2022-08-21T07:02:11;17.30;99.90
59301;DHT22;45073;52.740;6.784;2022-08-21T07:04:36;17.40;99.90
59301;DHT22;45073;52.740;6.784;2022-08-21T07:07:02;17.50;99.90
59301;DHT22;45073;52.740;6.784;2022-08-21T07:09:27;17.60;99.90
59301;DHT22;45073;52.740;6.784;2022-08-21T07:11:55;17.60;99.90
59301;DHT22;45073;52.740;6.784;2022-08-21T07:14:22;17.70;99.90
59301;DHT22;45073;52.740;6.784;2022-08-21T07:16:48;17.80;99.90
59301;DHT22;45073;52.740;6.784;2022-08-21T07:19:14;17.90;99.90
59301;DHT22;45073;52.740;6.784;2022-08-21T07:21:40;18.00;99.90
59301;DHT22;45073;52.740;6.784;2022-08-21T07:24:05;18.10;99.90
59301;DHT22;45073;52.740;6.784;2022-08-21T07:26:31;18.20;99.90
59301;DHT22;45073;52.740;6.784;2022-08-21T07:28:57;18.30;99.90
59301;DHT22;45073;52.740;6.784;2022-08-21T07:31:24;18.30;99.90
59301;DHT22;45073;52.740;6.784;2022-08-21T07:33:50;18.40;99.90
59301;DHT22;45073;52.740;6.784;2022-08-21T07:36:16;18.50;99.90
59301;DHT22;45073;52.740;6.784;2022-08-21T07:38:42;18.60;99.90
59301;DHT22;45073;52.740;6.784;2022-08-21T07:41:25;18.60;99.90
59301;DHT22;45073;52.740;6.784;2022-08-21T07:43:50;18.80;99.90
59301;DHT22;45073;52.740;6.784;2022-08-21T07:46:16;18.80;99.90
59301;DHT22;45073;52.740;6.784;2022-08-21T07:48:42;18.90;99.90
59301;DHT22;45073;52.740;6.784;2022-08-21T07:51:11;18.90;99.90
59301;DHT22;45073;52.740;6.784;2022-08-21T07:53:37;19.00;99.90
59301;DHT22;45073;52.740;6.784;2022-08-21T07:56:04;19.00;99.90
59301;DHT22;45073;52.740;6.784;2022-08-21T07:58:31;19.10;99.90
59301;DHT22;45073;52.740;6.784;2022-08-21T08:00:57;19.20;99.90
59301;DHT22;45073;52.740;6.784;2022-08-21T08:03:23;19.30;99.90
59301;DHT22;45073;52.740;6.784;2022-08-21T08:05:49;19.30;99.90
59301;DHT22;45073;52.740;6.784;2022-08-21T08:08:15;19.40;99.90
59301;DHT22;45073;52.740;6.784;2022-08-21T08:10:42;19.40;99.90
59301;DHT22;45073;52.740;6.784;2022-08-21T08:13:08;19.50;99.90
59301;DHT22;45073;52.740;6.784;2022-08-21T08:15:33;19.60;99.90
59301;DHT22;45073;52.740;6.784;2022-08-21T08:17:59;19.70;99.90
59301;DHT22;45073;52.740;6.784;2022-08-21T08:20:26;19.70;99.90
59301;DHT22;45073;52.740;6.784;2022-08-21T08:22:53;19.70;99.90
59301;DHT22;45073;52.740;6.784;2022-08-21T08:25:21;19.80;99.90
59301;DHT22;45073;52.740;6.784;2022-08-21T08:27:48;19.80;99.90
59301;DHT22;45073;52.740;6.784;2022-08-21T08:30:16;19.90;99.90
59301;DHT22;45073;52.740;6.784;2022-08-21T08:32:42;19.90;99.90
59301;DHT22;45073;52.740;6.784;2022-08-21T08:35:08;20.00;99.90
59301;DHT22;45073;52.740;6.784;2022-08-21T08:37:34;20.10;99.90
59301;DHT22;45073;52.740;6.784;2022-08-21T08:40:04;20.10;99.90
59301;DHT22;45073;52.740;6.784;2022-08-21T08:42:34;20.20;99.90
59301;DHT22;45073;52.740;6.784;2022-08-21T08:45:08;20.20;99.90
59301;DHT22;45073;52.740;6.784;2022-08-21T08:47:40;20.30;99.90
59301;DHT22;45073;52.740;6.784;2022-08-21T08:50:19;20.50;99.90
59301;DHT22;45073;52.740;6.784;2022-08-21T08:52:57;20.50;99.90
59301;DHT22;45073;52.740;6.784;2022-08-21T08:55:52;20.50;99.90
59301;DHT22;45073;52.740;6.784;2022-08-21T08:58:31;20.60;99.90
59301;DHT22;45073;52.740;6.784;2022-08-21T09:00:58;20.60;99.90
59301;DHT22;45073;52.740;6.784;2022-08-21T09:03:26;20.70;99.90
59301;DHT22;45073;52.740;6.784;2022-08-21T09:19:17;20.90;99.90
59301;DHT22;45073;52.740;6.784;2022-08-21T09:27:20;21.00;99.90
59301;DHT22;45073;52.740;6.784;2022-08-21T09:29:49;21.00;99.90
59301;DHT22;45073;52.740;6.784;2022-08-21T09:32:25;20.90;99.90
59301;DHT22;45073;52.740;6.784;2022-08-21T09:35:18;20.80;99.90
59301;DHT22;45073;52.740;6.784;2022-08-21T09:37:52;20.70;99.90
59301;DHT22;45073;52.740;6.784;2022-08-21T09:40:43;20.70;99.90
59301;DHT22;45073;52.740;6.784;2022-08-21T09:45:40;20.90;99.90
59301;DHT22;45073;52.740;6.784;2022-08-21T09:48:18;21.10;99.90
59301;DHT22;45073;52.740;6.784;2022-08-21T09:50:45;21.20;99.90
59301;DHT22;45073;52.740;6.784;2022-08-21T09:53:24;21.30;99.90
59301;DHT22;45073;52.740;6.784;2022-08-21T09:56:00;21.40;99.90
59301;DHT22;45073;52.740;6.784;2022-08-21T09:58:48;21.50;99.90
59301;DHT22;45073;52.740;6.784;2022-08-21T10:01:17;21.60;99.90
59301;DHT22;45073;52.740;6.784;2022-08-21T10:03:44;21.70;99.90
59301;DHT22;45073;52.740;6.784;2022-08-21T10:06:22;21.70;99.90
59301;DHT22;45073;52.740;6.784;2022-08-21T10:08:47;21.80;99.90
59301;DHT22;45073;52.740;6.784;2022-08-21T10:11:15;21.80;99.90
59301;DHT22;45073;52.740;6.784;2022-08-21T10:14:10;21.80;99.90
59301;DHT22;45073;52.740;6.784;2022-08-21T10:17:01;21.90;99.90
59301;DHT22;45073;52.740;6.784;2022-08-21T10:19:43;22.00;99.90
59301;DHT22;45073;52.740;6.784;2022-08-21T10:22:23;22.00;99.90
59301;DHT22;45073;52.740;6.784;2022-08-21T10:25:07;22.20;99.90
59301;DHT22;45073;52.740;6.784;2022-08-21T10:27:55;22.20;99.90
59301;DHT22;45073;52.740;6.784;2022-08-21T10:30:39;22.30;99.90
59301;DHT22;45073;52.740;6.784;2022-08-21T10:36:09;22.40;99.90
59301;DHT22;45073;52.740;6.784;2022-08-21T10:38:58;22.50;99.90
59301;DHT22;45073;52.740;6.784;2022-08-21T10:50:30;22.70;99.90
59301;DHT22;45073;52.740;6.784;2022-08-21T10:53:15;22.80;99.90
59301;DHT22;45073;52.740;6.784;2022-08-21T10:55:52;22.80;99.90
59301;DHT22;45073;52.740;6.784;2022-08-21T10:58:29;22.80;99.90
59301;DHT22;45073;52.740;6.784;2022-08-21T11:01:09;22.90;99.90
59301;DHT22;45073;52.740;6.784;2022-08-21T11:03:43;23.00;99.90
59301;DHT22;45073;52.740;6.784;2022-08-21T11:06:20;23.00;99.80
59301;DHT22;45073;52.740;6.784;2022-08-21T11:08:51;22.90;99.80
59301;DHT22;45073;52.740;6.784;2022-08-21T11:11:34;23.00;99.90
59301;DHT22;45073;52.740;6.784;2022-08-21T11:14:24;23.10;99.50
59301;DHT22;45073;52.740;6.784;2022-08-21T11:17:05;23.20;99.60
59301;DHT22;45073;52.740;6.784;2022-08-21T11:22:46;23.30;98.90
59301;DHT22;45073;52.740;6.784;2022-08-21T11:25:30;23.40;99.00
59301;DHT22;45073;52.740;6.784;2022-08-21T11:35:52;23.70;97.20
59301;DHT22;45073;52.740;6.784;2022-08-21T11:38:45;23.90;95.40
59301;DHT22;45073;52.740;6.784;2022-08-21T11:43:56;24.10;98.70
59301;DHT22;45073;52.740;6.784;2022-08-21T11:46:57;24.10;94.60
59301;DHT22;45073;52.740;6.784;2022-08-21T11:52:35;24.00;97.80
59301;DHT22;45073;52.740;6.784;2022-08-21T11:55:40;24.10;95.80
59301;DHT22;45073;52.740;6.784;2022-08-21T12:00:48;24.50;96.20
59301;DHT22;45073;52.740;6.784;2022-08-21T12:03:22;24.60;92.20
59301;DHT22;45073;52.740;6.784;2022-08-21T12:05:56;24.70;90.20
59301;DHT22;45073;52.740;6.784;2022-08-21T12:11:20;24.50;91.10
59301;DHT22;45073;52.740;6.784;2022-08-21T12:19:11;24.70;93.20
59301;DHT22;45073;52.740;6.784;2022-08-21T12:24:34;25.10;90.60
59301;DHT22;45073;52.740;6.784;2022-08-21T12:27:26;25.00;82.20
59301;DHT22;45073;52.740;6.784;2022-08-21T12:30:06;24.90;85.80
59301;DHT22;45073;52.740;6.784;2022-08-21T12:33:57;24.80;82.50
59301;DHT22;45073;52.740;6.784;2022-08-21T12:35:53;24.80;87.30
59301;DHT22;45073;52.740;6.784;2022-08-21T12:38:33;25.00;85.80
59301;DHT22;45073;52.740;6.784;2022-08-21T12:41:09;25.20;83.10
59301;DHT22;45073;52.740;6.784;2022-08-21T12:43:47;25.30;84.30
59301;DHT22;45073;52.740;6.784;2022-08-21T12:46:22;25.30;81.70
59301;DHT22;45073;52.740;6.784;2022-08-21T12:49:02;25.10;79.50
59301;DHT22;45073;52.740;6.784;2022-08-21T12:51:34;25.00;81.00
59301;DHT22;45073;52.740;6.784;2022-08-21T12:54:02;24.90;81.70
59301;DHT22;45073;52.740;6.784;2022-08-21T12:56:33;24.80;90.70
59301;DHT22;45073;52.740;6.784;2022-08-21T12:59:06;24.90;87.80
59301;DHT22;45073;52.740;6.784;2022-08-21T13:01:36;25.00;93.20
59301;DHT22;45073;52.740;6.784;2022-08-21T13:04:10;25.20;90.20
59301;DHT22;45073;52.740;6.784;2022-08-21T13:06:37;25.20;83.30
59301;DHT22;45073;52.740;6.784;2022-08-21T13:09:06;25.30;83.10
59301;DHT22;45073;52.740;6.784;2022-08-21T13:11:33;25.60;80.30
59301;DHT22;45073;52.740;6.784;2022-08-21T13:14:00;25.80;82.20
59301;DHT22;45073;52.740;6.784;2022-08-21T13:16:28;25.90;81.00
59301;DHT22;45073;52.740;6.784;2022-08-21T13:19:06;25.70;73.70
59301;DHT22;45073;52.740;6.784;2022-08-21T13:21:42;25.60;74.80
59301;DHT22;45073;52.740;6.784;2022-08-21T13:26:47;25.70;75.80
59301;DHT22;45073;52.740;6.784;2022-08-21T13:29:17;25.70;73.90
59301;DHT22;45073;52.740;6.784;2022-08-21T13:31:49;25.90;77.40
59301;DHT22;45073;52.740;6.784;2022-08-21T13:34:18;26.00;81.40
59301;DHT22;45073;52.740;6.784;2022-08-21T13:36:44;26.10;77.90
59301;DHT22;45073;52.740;6.784;2022-08-21T13:39:18;26.10;75.00
59301;DHT22;45073;52.740;6.784;2022-08-21T13:41:45;26.00;72.60
59301;DHT22;45073;52.740;6.784;2022-08-21T13:46:42;26.10;75.60
59301;DHT22;45073;52.740;6.784;2022-08-21T13:49:09;26.10;73.50
59301;DHT22;45073;52.740;6.784;2022-08-21T13:51:36;25.90;71.30
59301;DHT22;45073;52.740;6.784;2022-08-21T13:54:02;25.90;75.00
59301;DHT22;45073;52.740;6.784;2022-08-21T13:58:57;25.90;77.00
59301;DHT22;45073;52.740;6.784;2022-08-21T14:01:30;26.00;75.30
59301;DHT22;45073;52.740;6.784;2022-08-21T14:04:20;26.20;77.40
59301;DHT22;45073;52.740;6.784;2022-08-21T14:06:46;26.10;72.40
59301;DHT22;45073;52.740;6.784;2022-08-21T14:12:02;26.30;72.40
59301;DHT22;45073;52.740;6.784;2022-08-21T14:14:32;26.40;72.70
59301;DHT22;45073;52.740;6.784;2022-08-21T14:17:05;26.50;71.50
59301;DHT22;45073;52.740;6.784;2022-08-21T14:19:45;26.60;71.00
59301;DHT22;45073;52.740;6.784;2022-08-21T14:25:10;26.70;69.70
59301;DHT22;45073;52.740;6.784;2022-08-21T14:30:16;26.60;71.00
59301;DHT22;45073;52.740;6.784;2022-08-21T14:32:42;26.60;69.00
59301;DHT22;45073;52.740;6.784;2022-08-21T14:35:08;26.60;69.90
59301;DHT22;45073;52.740;6.784;2022-08-21T14:37:34;26.60;70.10
59301;DHT22;45073;52.740;6.784;2022-08-21T14:40:00;26.70;68.70
59301;DHT22;45073;52.740;6.784;2022-08-21T14:42:26;26.70;68.90
59301;DHT22;45073;52.740;6.784;2022-08-21T14:44:53;26.50;72.10
59301;DHT22;45073;52.740;6.784;2022-08-21T14:47:20;26.20;73.40
59301;DHT22;45073;52.740;6.784;2022-08-21T14:49:47;26.00;74.00
59301;DHT22;45073;52.740;6.784;2022-08-21T14:52:13;25.90;78.20
59301;DHT22;45073;52.740;6.784;2022-08-21T14:54:38;25.70;82.60
59301;DHT22;45073;52.740;6.784;2022-08-21T14:57:09;25.60;86.10
59301;DHT22;45073;52.740;6.784;2022-08-21T14:59:36;25.60;81.40
59301;DHT22;45073;52.740;6.784;2022-08-21T15:02:03;25.50;82.60
59301;DHT22;45073;52.740;6.784;2022-08-21T15:04:30;25.50;81.80
59301;DHT22;45073;52.740;6.784;2022-08-21T15:06:56;25.40;82.40
59301;DHT22;45073;52.740;6.784;2022-08-21T15:09:22;25.40;80.80
59301;DHT22;45073;52.740;6.784;2022-08-21T15:11:47;25.50;82.70
59301;DHT22;45073;52.740;6.784;2022-08-21T15:14:20;25.70;80.10
59301;DHT22;45073;52.740;6.784;2022-08-21T15:16:47;25.80;77.60
59301;DHT22;45073;52.740;6.784;2022-08-21T15:19:13;25.90;77.00
59301;DHT22;45073;52.740;6.784;2022-08-21T15:21:39;26.00;76.40
59301;DHT22;45073;52.740;6.784;2022-08-21T15:24:04;26.00;80.90
59301;DHT22;45073;52.740;6.784;2022-08-21T15:26:30;26.10;80.60
59301;DHT22;45073;52.740;6.784;2022-08-21T15:28:56;26.00;76.80
59301;DHT22;45073;52.740;6.784;2022-08-21T15:31:21;25.90;75.40
59301;DHT22;45073;52.740;6.784;2022-08-21T15:33:47;25.80;80.40
59301;DHT22;45073;52.740;6.784;2022-08-21T15:36:12;25.80;83.80
59301;DHT22;45073;52.740;6.784;2022-08-21T15:38:38;25.90;86.10
59301;DHT22;45073;52.740;6.784;2022-08-21T15:41:04;26.00;85.50
59301;DHT22;45073;52.740;6.784;2022-08-21T15:43:42;26.10;87.10
59301;DHT22;45073;52.740;6.784;2022-08-21T15:46:10;26.10;86.30
59301;DHT22;45073;52.740;6.784;2022-08-21T15:48:37;26.10;85.90
59301;DHT22;45073;52.740;6.784;2022-08-21T15:51:03;26.10;85.60
59301;DHT22;45073;52.740;6.784;2022-08-21T15:53:28;26.00;86.60
59301;DHT22;45073;52.740;6.784;2022-08-21T15:55:54;26.10;87.10
59301;DHT22;45073;52.740;6.784;2022-08-21T15:58:21;26.00;86.10
59301;DHT22;45073;52.740;6.784;2022-08-21T16:00:47;26.00;86.80
59301;DHT22;45073;52.740;6.784;2022-08-21T16:03:15;26.00;87.80
59301;DHT22;45073;52.740;6.784;2022-08-21T16:05:43;26.00;88.10
59301;DHT22;45073;52.740;6.784;2022-08-21T16:08:09;25.90;87.00
59301;DHT22;45073;52.740;6.784;2022-08-21T16:10:36;25.90;86.50
59301;DHT22;45073;52.740;6.784;2022-08-21T16:13:04;25.90;86.70
59301;DHT22;45073;52.740;6.784;2022-08-21T16:15:32;25.90;88.70
59301;DHT22;45073;52.740;6.784;2022-08-21T16:17:58;25.80;89.50
59301;DHT22;45073;52.740;6.784;2022-08-21T16:20:28;25.80;90.30
59301;DHT22;45073;52.740;6.784;2022-08-21T16:22:55;25.80;90.60
59301;DHT22;45073;52.740;6.784;2022-08-21T16:25:22;25.80;90.30
59301;DHT22;45073;52.740;6.784;2022-08-21T16:27:51;25.70;90.20
59301;DHT22;45073;52.740;6.784;2022-08-21T16:30:18;25.70;90.00
59301;DHT22;45073;52.740;6.784;2022-08-21T16:32:44;25.70;90.40
59301;DHT22;45073;52.740;6.784;2022-08-21T16:35:13;25.60;90.80
59301;DHT22;45073;52.740;6.784;2022-08-21T16:37:40;25.50;91.10
59301;DHT22;45073;52.740;6.784;2022-08-21T16:40:06;25.50;91.90
59301;DHT22;45073;52.740;6.784;2022-08-21T16:42:34;25.50;92.00
59301;DHT22;45073;52.740;6.784;2022-08-21T16:45:00;25.40;91.60
59301;DHT22;45073;52.740;6.784;2022-08-21T16:47:28;25.40;92.30
59301;DHT22;45073;52.740;6.784;2022-08-21T16:49:56;25.30;93.20
59301;DHT22;45073;52.740;6.784;2022-08-21T16:52:22;25.30;94.10
59301;DHT22;45073;52.740;6.784;2022-08-21T16:54:48;25.30;94.10
59301;DHT22;45073;52.740;6.784;2022-08-21T16:57:13;25.30;93.60
59301;DHT22;45073;52.740;6.784;2022-08-21T16:59:39;25.20;92.90
59301;DHT22;45073;52.740;6.784;2022-08-21T17:02:16;25.20;93.10